sensor_id;sensor_type;location;lat;lon;timestamp;temperature;humidity
1447;DHT22;717;51.522;7.266;2023-04-03T00:01:25;9.70;99.90
1447;DHT22;717;51.522;7.266;2023-04-03T00:03:53;9.80;99.90
1447;DHT22;717;51.522;7.266;2023-04-03T00:06:23;9.70;99.90
1447;DHT22;717;51.522;7.266;2023-04-03T00:08:52;9.70;99.90
1447;DHT22;717;51.522;7.266;2023-04-03T00:11:21;9.70;99.90
1447;DHT22;717;51.522;7.266;2023-04-03T00:13:49;9.70;99.90
1447;DHT22;717;51.522;7.266;2023-04-03T00:16:20;9.70;99.90
1447;DHT22;717;51.522;7.266;2023-04-03T00:18:49;9.70;99.90
1447;DHT22;717;51.522;7.266;2023-04-03T00:21:17;9.60;99.90
1447;DHT22;717;51.522;7.266;2023-04-03T00:23:46;9.60;99.90
1447;DHT22;717;51.522;7.266;2023-04-03T00:26:14;9.60;99.90
1447;DHT22;717;51.522;7.266;2023-04-03T00:28:43;9.60;99.90
1447;DHT22;717;51.522;7.266;2023-04-03T00:31:14;9.60;99.90
1447;DHT22;717;51.522;7.266;2023-04-03T00:33:45;9.60;99.90
1447;DHT22;717;51.522;7.266;2023-04-03T00:36:13;9.50;99.90
1447;DHT22;717;51.522;7.266;2023-04-03T00:38:42;9.50;99.90
1447;DHT22;717;51.522;7.266;2023-04-03T00:41:10;9.60;99.90
1447;DHT22;717;51.522;7.266;2023-04-03T00:43:39;9.50;99.90
1447;DHT22;717;51.522;7.266;2023-04-03T00:46:07;9.50;99.90
1447;DHT22;717;51.522;7.266;2023-04-03T00:48:38;9.50;99.90
1447;DHT22;717;51.522;7.266;2023-04-03T00:51:13;9.50;99.90
1447;DHT22;717;51.522;7.266;2023-04-03T00:53:46;9.40;99.90
1447;DHT22;717;51.522;7.266;2023-04-03T00:56:18;9.50;99.90
1447;DHT22;717;51.522;7.266;2023-04-03T00:58:50;9.50;99.90
1447;DHT22;717;51.522;7.266;2023-04-03T01:01:22;9.50;99.90
1447;DHT22;717;51.522;7.266;2023-04-03T01:03:52;9.40;99.90
1447;DHT22;717;51.522;7.266;2023-04-03T01:06:27;9.40;99.90
1447;DHT22;717;51.522;7.266;2023-04-03T01:08:57;9.40;99.90
1447;DHT22;717;51.522;7.266;2023-04-03T01:11:26;9.40;99.90
1447;DHT22;717;51.522;7.266;2023-04-03T01:13:55;9.50;99.90
1447;DHT22;717;51.522;7.266;2023-04-03T01:16:23;9.50;99.90
1447;DHT22;717;51.522;7.266;2023-04-03T01:18:53;9.40;99.90
1447;DHT22;717;51.522;7.266;2023-04-03T01:21:42;9.40;99.90
1447;DHT22;717;51.522;7.266;2023-04-03T01:24:30;9.40;99.90
1447;DHT22;717;51.522;7.266;2023-04-03T01:27:01;9.40;99.90
1447;DHT22;717;51.522;7.266;2023-04-03T01:29:31;9.40;99.90
1447;DHT22;717;51.522;7.266;2023-04-03T01:32:03;9.40;99.90
1447;DHT22;717;51.522;7.266;2023-04-03T01:34:31;9.40;99.90
1447;DHT22;717;51.522;7.266;2023-04-03T01:37:00;9.40;99.90
1447;DHT22;717;51.522;7.266;2023-04-03T01:39:28;9.30;99.90
1447;DHT22;717;51.522;7.266;2023-04-03T01:41:57;9.40;99.90
1447;DHT22;717;51.522;7.266;2023-04-03T01:44:25;9.30;99.90
1447;DHT22;717;51.522;7.266;2023-04-03T01:46:54;9.40;99.90
1447;DHT22;717;51.522;7.266;2023-04-03T01:49:25;9.30;99.90
1447;DHT22;717;51.522;7.266;2023-04-03T01:51:53;9.30;99.90
1447;DHT22;717;51.522;7.266;2023-04-03T01:54:22;9.30;99.90
1447;DHT22;717;51.522;7.266;2023-04-03T01:56:50;9.30;99.90
1447;DHT22;717;51.522;7.266;2023-04-03T01:59:19;9.30;99.90
1447;DHT22;717;51.522;7.266;2023-04-03T02:01:47;9.30;99.90
1447;DHT22;717;51.522;7.266;2023-04-03T02:04:16;9.30;99.90
1447;DHT22;717;51.522;7.266;2023-04-03T02:06:47;9.20;99.90
1447;DHT22;717;51.522;7.266;2023-04-03T02:09:15;9.20;99.90
1447;DHT22;717;51.522;7.266;2023-04-03T02:11:44;9.20;99.90
1447;DHT22;717;51.522;7.266;2023-04-03T02:14:12;9.30;99.90
1447;DHT22;717;51.522;7.266;2023-04-03T02:16:41;9.20;99.90
1447;DHT22;717;51.522;7.266;2023-04-03T02:19:09;9.20;99.90
1447;DHT22;717;51.522;7.266;2023-04-03T02:21:37;9.20;99.90
1447;DHT22;717;51.522;7.266;2023-04-03T02:24:09;9.20;99.90
1447;DHT22;717;51.522;7.266;2023-04-03T02:26:37;9.20;99.90
1447;DHT22;717;51.522;7.266;2023-04-03T02:29:05;9.20;99.90
1447;DHT22;717;51.522;7.266;2023-04-03T02:31:34;9.20;99.90
1447;DHT22;717;51.522;7.266;2023-04-03T02:34:02;9.20;99.90
1447;DHT22;717;51.522;7.266;2023-04-03T02:36:31;9.10;99.90
1447;DHT22;717;51.522;7.266;2023-04-03T02:38:59;9.10;99.90
1447;DHT22;717;51.522;7.266;2023-04-03T02:41:31;9.10;99.90
1447;DHT22;717;51.522;7.266;2023-04-03T02:44:00;9.10;99.90
1447;DHT22;717;51.522;7.266;2023-04-03T02:46:29;9.10;99.90
1447;DHT22;717;51.522;7.266;2023-04-03T02:48:58;9.10;99.90
1447;DHT22;717;51.522;7.266;2023-04-03T02:51:26;9.10;99.90
1447;DHT22;717;51.522;7.266;2023-04-03T02:53:54;9.10;99.90
1447;DHT22;717;51.522;7.266;2023-04-03T02:56:23;9.10;99.90
1447;DHT22;717;51.522;7.266;2023-04-03T02:58:54;9.00;99.90
1447;DHT22;717;51.522;7.266;2023-04-03T03:01:23;9.10;99.90
1447;DHT22;717;51.522;7.266;2023-04-03T03:03:53;9.10;99.90
1447;DHT22;717;51.522;7.266;2023-04-03T03:06:22;9.00;99.90
1447;DHT22;717;51.522;7.266;2023-04-03T03:08:51;9.00;99.90
1447;DHT22;717;51.522;7.266;2023-04-03T03:11:19;9.00;99.90
1447;DHT22;717;51.522;7.266;2023-04-03T03:13:48;9.00;99.90
1447;DHT22;717;51.522;7.266;2023-04-03T03:16:19;9.00;99.90
1447;DHT22;717;51.522;7.266;2023-04-03T03:18:47;8.90;99.90
1447;DHT22;717;51.522;7.266;2023-04-03T03:21:16;8.90;99.90
1447;DHT22;717;51.522;7.266;2023-04-03T03:23:44;8.90;99.90
1447;DHT22;717;51.522;7.266;2023-04-03T03:26:13;8.90;99.90
1447;DHT22;717;51.522;7.266;2023-04-03T03:28:42;8.80;99.90
1447;DHT22;717;51.522;7.266;2023-04-03T03:31:10;8.80;99.90
1447;DHT22;717;51.522;7.266;2023-04-03T03:33:41;8.80;99.90
1447;DHT22;717;51.522;7.266;2023-04-03T03:36:10;8.80;99.90
1447;DHT22;717;51.522;7.266;2023-04-03T03:38:38;8.70;99.90
1447;DHT22;717;51.522;7.266;2023-04-03T03:41:07;8.70;99.90
1447;DHT22;717;51.522;7.266;2023-04-03T03:43:35;8.70;99.90
1447;DHT22;717;51.522;7.266;2023-04-03T03:46:04;8.70;99.90
1447;DHT22;717;51.522;7.266;2023-04-03T03:48:33;8.70;99.90
1447;DHT22;717;51.522;7.266;2023-04-03T03:51:04;8.70;99.90
1447;DHT22;717;51.522;7.266;2023-04-03T03:53:33;8.70;99.90
1447;DHT22;717;51.522;7.266;2023-04-03T03:56:01;8.70;99.90
1447;DHT22;717;51.522;7.266;2023-04-03T03:58:30;8.70;99.90
1447;DHT22;717;51.522;7.266;2023-04-03T04:01:00;8.70;99.90
1447;DHT22;717;51.522;7.266;2023-04-03T04:03:29;8.70;99.90
1447;DHT22;717;51.522;7.266;2023-04-03T04:05:57;8.70;99.90
1447;DHT22;717;51.522;7.266;2023-04-03T04:08:28;8.70;99.90
1447;DHT22;717;51.522;7.266;2023-04-03T04:10:57;8.70;99.90
1447;DHT22;717;51.522;7.266;2023-04-03T04:13:25;8.70;99.90
1447;DHT22;717;51.522;7.266;2023-04-03T04:15:54;8.70;99.90
1447;DHT22;717;51.522;7.266;2023-04-03T04:18:22;8.70;99.90
1447;DHT22;717;51.522;7.266;2023-04-03T04:20:51;8.70;99.90
1447;DHT22;717;51.522;7.266;2023-04-03T04:23:20;8.70;99.90
1447;DHT22;717;51.522;7.266;2023-04-03T04:25:51;8.70;99.90
1447;DHT22;717;51.522;7.266;2023-04-03T04:28:20;8.70;99.90
1447;DHT22;717;51.522;7.266;2023-04-03T04:30:48;8.70;99.90
1447;DHT22;717;51.522;7.266;2023-04-03T04:33:16;8.60;99.90
1447;DHT22;717;51.522;7.266;2023-04-03T04:35:47;8.60;99.90
1447;DHT22;717;51.522;7.266;2023-04-03T04:38:17;8.60;99.90
1447;DHT22;717;51.522;7.266;2023-04-03T04:40:47;8.60;99.90
1447;DHT22;717;51.522;7.266;2023-04-03T04:43:18;8.60;99.90
1447;DHT22;717;51.522;7.266;2023-04-03T04:45:46;8.60;99.90
1447;DHT22;717;51.522;7.266;2023-04-03T04:48:15;8.60;99.90
1447;DHT22;717;51.522;7.266;2023-04-03T04:50:43;8.60;99.90
1447;DHT22;717;51.522;7.266;2023-04-03T04:53:12;8.60;99.90
1447;DHT22;717;51.522;7.266;2023-04-03T04:55:41;8.60;99.90
1447;DHT22;717;51.522;7.266;2023-04-03T04:58:09;8.60;99.90
1447;DHT22;717;51.522;7.266;2023-04-03T05:00:40;8.50;99.90
1447;DHT22;717;51.522;7.266;2023-04-03T05:03:09;8.50;99.90
1447;DHT22;717;51.522;7.266;2023-04-03T05:05:37;8.50;99.90
1447;DHT22;717;51.522;7.266;2023-04-03T05:08:06;8.50;99.90
1447;DHT22;717;51.522;7.266;2023-04-03T05:10:35;8.40;99.90
1447;DHT22;717;51.522;7.266;2023-04-03T05:13:03;8.50;99.90
1447;DHT22;717;51.522;7.266;2023-04-03T05:15:32;8.40;99.90
1447;DHT22;717;51.522;7.266;2023-04-03T05:18:03;8.50;99.90
1447;DHT22;717;51.522;7.266;2023-04-03T05:20:32;8.40;99.90
1447;DHT22;717;51.522;7.266;2023-04-03T05:23:01;8.40;99.90
1447;DHT22;717;51.522;7.266;2023-04-03T05:25:29;8.40;99.90
1447;DHT22;717;51.522;7.266;2023-04-03T05:27:58;8.40;99.90
1447;DHT22;717;51.522;7.266;2023-04-03T05:30:27;8.40;99.90
1447;DHT22;717;51.522;7.266;2023-04-03T05:32:55;8.40;99.90
1447;DHT22;717;51.522;7.266;2023-04-03T05:35:26;8.40;99.90
1447;DHT22;717;51.522;7.266;2023-04-03T05:37:55;8.40;99.90
1447;DHT22;717;51.522;7.266;2023-04-03T05:40:24;8.40;99.90
1447;DHT22;717;51.522;7.266;2023-04-03T05:42:52;8.30;99.90
1447;DHT22;717;51.522;7.266;2023-04-03T05:45:21;8.20;99.90
1447;DHT22;717;51.522;7.266;2023-04-03T05:47:50;8.20;99.90
1447;DHT22;717;51.522;7.266;2023-04-03T05:50:18;8.20;99.90
1447;DHT22;717;51.522;7.266;2023-04-03T05:52:51;8.10;99.90
1447;DHT22;717;51.522;7.266;2023-04-03T05:55:20;8.10;99.90
1447;DHT22;717;51.522;7.266;2023-04-03T05:57:49;8.10;99.90
1447;DHT22;717;51.522;7.266;2023-04-03T06:00:19;8.10;99.90
1447;DHT22;717;51.522;7.266;2023-04-03T06:02:48;8.10;99.90
1447;DHT22;717;51.522;7.266;2023-04-03T06:05:16;8.00;99.90
1447;DHT22;717;51.522;7.266;2023-04-03T06:07:45;8.00;99.90
1447;DHT22;717;51.522;7.266;2023-04-03T06:10:17;8.00;99.90
1447;DHT22;717;51.522;7.266;2023-04-03T06:12:46;7.90;99.90
1447;DHT22;717;51.522;7.266;2023-04-03T06:15:14;7.80;99.90
1447;DHT22;717;51.522;7.266;2023-04-03T06:17:43;7.80;99.90
1447;DHT22;717;51.522;7.266;2023-04-03T06:20:12;7.80;99.90
1447;DHT22;717;51.522;7.266;2023-04-03T06:22:41;7.80;99.90
1447;DHT22;717;51.522;7.266;2023-04-03T06:25:10;7.80;99.90
1447;DHT22;717;51.522;7.266;2023-04-03T06:27:41;7.80;99.90
1447;DHT22;717;51.522;7.266;2023-04-03T06:30:10;7.80;99.90
1447;DHT22;717;51.522;7.266;2023-04-03T06:32:39;7.90;99.90
1447;DHT22;717;51.522;7.266;2023-04-03T06:35:09;7.80;99.90
1447;DHT22;717;51.522;7.266;2023-04-03T06:37:37;7.80;99.90
1447;DHT22;717;51.522;7.266;2023-04-03T06:40:09;7.80;99.90
1447;DHT22;717;51.522;7.266;2023-04-03T06:42:42;7.80;99.90
1447;DHT22;717;51.522;7.266;2023-04-03T06:45:11;7.80;99.90
1447;DHT22;717;51.522;7.266;2023-04-03T06:47:39;7.70;99.90
1447;DHT22;717;51.522;7.266;2023-04-03T06:50:09;7.70;99.90
1447;DHT22;717;51.522;7.266;2023-04-03T06:52:40;7.70;99.90
1447;DHT22;717;51.522;7.266;2023-04-03T06:55:09;7.80;99.90
1447;DHT22;717;51.522;7.266;2023-04-03T06:57:37;7.80;99.90
1447;DHT22;717;51.522;7.266;2023-04-03T07:00:11;7.70;99.90
1447;DHT22;717;51.522;7.266;2023-04-03T07:02:40;7.70;99.90
1447;DHT22;717;51.522;7.266;2023-04-03T07:05:09;7.70;99.90
1447;DHT22;717;51.522;7.266;2023-04-03T07:07:37;7.70;99.90
1447;DHT22;717;51.522;7.266;2023-04-03T07:10:08;7.70;99.90
1447;DHT22;717;51.522;7.266;2023-04-03T07:12:36;7.70;99.90
1447;DHT22;717;51.522;7.266;2023-04-03T07:15:09;7.70;99.90
1447;DHT22;717;51.522;7.266;2023-04-03T07:17:39;7.70;99.90
1447;DHT22;717;51.522;7.266;2023-04-03T07:20:09;7.70;99.90
1447;DHT22;717;51.522;7.266;2023-04-03T07:22:37;7.70;99.90
1447;DHT22;717;51.522;7.266;2023-04-03T07:25:07;7.80;99.90
1447;DHT22;717;51.522;7.266;2023-04-03T07:27:36;7.80;99.90
1447;DHT22;717;51.522;7.266;2023-04-03T07:30:08;7.80;99.90
1447;DHT22;717;51.522;7.266;2023-04-03T07:32:39;7.80;99.90
1447;DHT22;717;51.522;7.266;2023-04-03T07:35:08;7.80;99.90
1447;DHT22;717;51.522;7.266;2023-04-03T07:37:37;7.80;99.90
1447;DHT22;717;51.522;7.266;2023-04-03T07:40:07;7.80;99.90
1447;DHT22;717;51.522;7.266;2023-04-03T07:42:35;7.80;99.90
1447;DHT22;717;51.522;7.266;2023-04-03T07:45:05;7.80;99.90
1447;DHT22;717;51.522;7.266;2023-04-03T07:47:36;7.90;99.90
1447;DHT22;717;51.522;7.266;2023-04-03T07:50:06;7.90;99.90
1447;DHT22;717;51.522;7.266;2023-04-03T07:52:35;7.90;99.90
1447;DHT22;717;51.522;7.266;2023-04-03T07:55:04;7.90;99.90
1447;DHT22;717;51.522;7.266;2023-04-03T07:57:33;7.90;99.90
1447;DHT22;717;51.522;7.266;2023-04-03T08:00:03;7.90;99.90
1447;DHT22;717;51.522;7.266;2023-04-03T08:02:32;7.90;99.90
1447;DHT22;717;51.522;7.266;2023-04-03T08:05:04;7.90;99.90
1447;DHT22;717;51.522;7.266;2023-04-03T08:07:33;7.90;99.90
1447;DHT22;717;51.522;7.266;2023-04-03T08:10:02;8.00;99.90
1447;DHT22;717;51.522;7.266;2023-04-03T08:12:30;8.00;99.90
1447;DHT22;717;51.522;7.266;2023-04-03T08:15:00;8.10;99.90
1447;DHT22;717;51.522;7.266;2023-04-03T08:17:28;8.10;99.90
1447;DHT22;717;51.522;7.266;2023-04-03T08:19:57;8.10;99.90
1447;DHT22;717;51.522;7.266;2023-04-03T08:22:29;8.20;99.90
1447;DHT22;717;51.522;7.266;2023-04-03T08:24:58;8.10;99.90
1447;DHT22;717;51.522;7.266;2023-04-03T08:27:27;8.20;99.90
1447;DHT22;717;51.522;7.266;2023-04-03T08:29:55;8.20;99.90
1447;DHT22;717;51.522;7.266;2023-04-03T08:32:24;8.20;99.90
1447;DHT22;717;51.522;7.266;2023-04-03T08:34:53;8.30;99.90
1447;DHT22;717;51.522;7.266;2023-04-03T08:37:21;8.20;99.90
1447;DHT22;717;51.522;7.266;2023-04-03T08:39:52;8.30;99.90
1447;DHT22;717;51.522;7.266;2023-04-03T08:42:34;8.30;99.90
1447;DHT22;717;51.522;7.266;2023-04-03T08:45:10;8.30;99.90
1447;DHT22;717;51.522;7.266;2023-04-03T08:47:44;8.30;99.90
1447;DHT22;717;51.522;7.266;2023-04-03T08:50:17;8.40;99.90
1447;DHT22;717;51.522;7.266;2023-04-03T08:52:49;8.40;99.90
1447;DHT22;717;51.522;7.266;2023-04-03T08:55:25;8.30;99.90
1447;DHT22;717;51.522;7.266;2023-04-03T08:58:00;8.40;99.90
1447;DHT22;717;51.522;7.266;2023-04-03T09:00:34;8.40;99.90
1447;DHT22;717;51.522;7.266;2023-04-03T09:03:11;8.50;99.90
1447;DHT22;717;51.522;7.266;2023-04-03T09:05:45;8.50;99.90
1447;DHT22;717;51.522;7.266;2023-04-03T09:08:22;8.50;99.90
1447;DHT22;717;51.522;7.266;2023-04-03T09:11:00;8.50;99.90
1447;DHT22;717;51.522;7.266;2023-04-03T09:13:36;8.60;99.90
1447;DHT22;717;51.522;7.266;2023-04-03T09:16:18;8.60;99.90
1447;DHT22;717;51.522;7.266;2023-04-03T09:18:52;8.70;99.90
1447;DHT22;717;51.522;7.266;2023-04-03T09:21:26;8.80;99.90
1447;DHT22;717;51.522;7.266;2023-04-03T09:24:00;8.90;99.90
1447;DHT22;717;51.522;7.266;2023-04-03T09:26:36;9.00;99.90
1447;DHT22;717;51.522;7.266;2023-04-03T09:29:06;9.00;99.90
1447;DHT22;717;51.522;7.266;2023-04-03T09:31:37;9.10;99.90
1447;DHT22;717;51.522;7.266;2023-04-03T09:34:10;9.20;99.90
1447;DHT22;717;51.522;7.266;2023-04-03T09:36:44;9.20;99.90
1447;DHT22;717;51.522;7.266;2023-04-03T09:39:15;9.30;99.90
1447;DHT22;717;51.522;7.266;2023-04-03T09:41:56;9.40;99.90
1447;DHT22;717;51.522;7.266;2023-04-03T09:44:27;9.40;99.90
1447;DHT22;717;51.522;7.266;2023-04-03T09:46:56;9.50;99.90
1447;DHT22;717;51.522;7.266;2023-04-03T09:49:25;9.60;99.90
1447;DHT22;717;51.522;7.266;2023-04-03T09:51:53;9.60;99.90
1447;DHT22;717;51.522;7.266;2023-04-03T09:54:31;10.00;99.90
1447;DHT22;717;51.522;7.266;2023-04-03T09:57:10;10.60;99.90
1447;DHT22;717;51.522;7.266;2023-04-03T09:59:44;11.10;99.90
1447;DHT22;717;51.522;7.266;2023-04-03T10:02:25;11.40;99.90
1447;DHT22;717;51.522;7.266;2023-04-03T10:04:57;11.60;99.90
1447;DHT22;717;51.522;7.266;2023-04-03T10:07:29;11.70;99.90
1447;DHT22;717;51.522;7.266;2023-04-03T10:10:00;11.70;99.90
1447;DHT22;717;51.522;7.266;2023-04-03T10:12:31;11.70;99.90
1447;DHT22;717;51.522;7.266;2023-04-03T10:15:00;11.70;99.90
1447;DHT22;717;51.522;7.266;2023-04-03T10:17:51;11.70;99.90
1447;DHT22;717;51.522;7.266;2023-04-03T10:20:33;11.70;99.90
1447;DHT22;717;51.522;7.266;2023-04-03T10:23:15;11.80;99.90
1447;DHT22;717;51.522;7.266;2023-04-03T10:25:52;11.80;99.90
1447;DHT22;717;51.522;7.266;2023-04-03T10:28:32;11.90;99.90
1447;DHT22;717;51.522;7.266;2023-04-03T10:31:11;11.90;99.90
1447;DHT22;717;51.522;7.266;2023-04-03T10:33:55;11.90;99.90
1447;DHT22;717;51.522;7.266;2023-04-03T10:36:34;11.90;99.90
1447;DHT22;717;51.522;7.266;2023-04-03T10:39:16;12.00;99.90
1447;DHT22;717;51.522;7.266;2023-04-03T10:41:59;12.00;99.90
1447;DHT22;717;51.522;7.266;2023-04-03T10:44:40;12.10;99.90
1447;DHT22;717;51.522;7.266;2023-04-03T10:47:17;12.10;99.90
1447;DHT22;717;51.522;7.266;2023-04-03T10:49:56;12.20;99.90
1447;DHT22;717;51.522;7.266;2023-04-03T10:52:32;12.30;99.90
1447;DHT22;717;51.522;7.266;2023-04-03T10:55:17;12.40;99.90
1447;DHT22;717;51.522;7.266;2023-04-03T10:57:50;12.40;99.90
1447;DHT22;717;51.522;7.266;2023-04-03T11:00:26;12.50;99.90
1447;DHT22;717;51.522;7.266;2023-04-03T11:02:59;12.60;99.90
1447;DHT22;717;51.522;7.266;2023-04-03T11:05:36;12.60;99.90
1447;DHT22;717;51.522;7.266;2023-04-03T11:08:10;12.70;99.90
1447;DHT22;717;51.522;7.266;2023-04-03T11:10:41;12.80;99.90
1447;DHT22;717;51.522;7.266;2023-04-03T11:13:13;12.90;99.90
1447;DHT22;717;51.522;7.266;2023-04-03T11:15:45;13.00;99.90
1447;DHT22;717;51.522;7.266;2023-04-03T11:18:18;13.10;99.90
1447;DHT22;717;51.522;7.266;2023-04-03T11:20:57;13.10;99.90
1447;DHT22;717;51.522;7.266;2023-04-03T11:23:30;13.20;99.90
1447;DHT22;717;51.522;7.266;2023-04-03T11:26:07;13.20;99.90
1447;DHT22;717;51.522;7.266;2023-04-03T11:28:37;13.30;99.90
1447;DHT22;717;51.522;7.266;2023-04-03T11:31:22;13.40;99.90
1447;DHT22;717;51.522;7.266;2023-04-03T11:34:02;13.50;99.90
1447;DHT22;717;51.522;7.266;2023-04-03T11:36:38;13.60;99.90
1447;DHT22;717;51.522;7.266;2023-04-03T11:39:17;13.70;99.90
1447;DHT22;717;51.522;7.266;2023-04-03T11:41:48;13.70;99.90
1447;DHT22;717;51.522;7.266;2023-04-03T11:44:32;13.80;99.90
1447;DHT22;717;51.522;7.266;2023-04-03T11:47:05;13.90;99.90
1447;DHT22;717;51.522;7.266;2023-04-03T11:49:53;14.00;99.90
1447;DHT22;717;51.522;7.266;2023-04-03T11:52:57;14.00;99.90
1447;DHT22;717;51.522;7.266;2023-04-03T11:55:45;14.10;99.90
1447;DHT22;717;51.522;7.266;2023-04-03T11:58:15;14.10;99.90
1447;DHT22;717;51.522;7.266;2023-04-03T12:01:06;14.20;99.90
1447;DHT22;717;51.522;7.266;2023-04-03T12:13:00;14.40;99.90
1447;DHT22;717;51.522;7.266;2023-04-03T12:15:49;14.50;99.90
1447;DHT22;717;51.522;7.266;2023-04-03T12:18:41;14.60;99.90
1447;DHT22;717;51.522;7.266;2023-04-03T12:21:10;14.70;99.90
1447;DHT22;717;51.522;7.266;2023-04-03T12:23:58;14.80;99.90
1447;DHT22;717;51.522;7.266;2023-04-03T12:26:31;14.80;99.90
1447;DHT22;717;51.522;7.266;2023-04-03T12:29:13;14.90;99.90
1447;DHT22;717;51.522;7.266;2023-04-03T12:31:48;15.00;99.90
1447;DHT22;717;51.522;7.266;2023-04-03T12:34:30;15.00;99.90
1447;DHT22;717;51.522;7.266;2023-04-03T12:37:14;15.10;99.90
1447;DHT22;717;51.522;7.266;2023-04-03T12:40:00;15.10;99.90
1447;DHT22;717;51.522;7.266;2023-04-03T12:42:42;15.20;99.90
1447;DHT22;717;51.522;7.266;2023-04-03T12:45:20;15.20;99.90
1447;DHT22;717;51.522;7.266;2023-04-03T12:47:49;15.30;99.90
1447;DHT22;717;51.522;7.266;2023-04-03T12:50:23;15.30;99.90
1447;DHT22;717;51.522;7.266;2023-04-03T12:52:57;15.40;99.90
1447;DHT22;717;51.522;7.266;2023-04-03T12:55:27;15.40;99.90
1447;DHT22;717;51.522;7.266;2023-04-03T12:57:56;15.50;99.90
1447;DHT22;717;51.522;7.266;2023-04-03T13:00:35;15.50;99.90
1447;DHT22;717;51.522;7.266;2023-04-03T13:03:06;15.60;99.90
1447;DHT22;717;51.522;7.266;2023-04-03T13:05:45;15.70;99.90
1447;DHT22;717;51.522;7.266;2023-04-03T13:08:14;15.70;99.90
1447;DHT22;717;51.522;7.266;2023-04-03T13:10:53;15.80;99.90
1447;DHT22;717;51.522;7.266;2023-04-03T13:13:22;15.80;99.90
1447;DHT22;717;51.522;7.266;2023-04-03T13:15:55;15.80;99.90
1447;DHT22;717;51.522;7.266;2023-04-03T13:18:26;15.90;99.90
1447;DHT22;717;51.522;7.266;2023-04-03T13:20:59;15.90;99.90
1447;DHT22;717;51.522;7.266;2023-04-03T13:23:30;15.90;99.90
1447;DHT22;717;51.522;7.266;2023-04-03T13:25:59;16.00;99.90
1447;DHT22;717;51.522;7.266;2023-04-03T13:28:30;16.00;99.90
1447;DHT22;717;51.522;7.266;2023-04-03T13:31:06;16.10;99.90
1447;DHT22;717;51.522;7.266;2023-04-03T13:33:36;16.10;99.90
1447;DHT22;717;51.522;7.266;2023-04-03T13:36:08;16.20;99.90
1447;DHT22;717;51.522;7.266;2023-04-03T13:38:39;16.20;99.90
1447;DHT22;717;51.522;7.266;2023-04-03T13:41:24;16.30;99.90
1447;DHT22;717;51.522;7.266;2023-04-03T13:43:53;16.30;99.90
1447;DHT22;717;51.522;7.266;2023-04-03T13:46:27;16.40;99.90
1447;DHT22;717;51.522;7.266;2023-04-03T13:49:17;16.50;99.90
1447;DHT22;717;51.522;7.266;2023-04-03T13:51:45;16.50;99.90
1447;DHT22;717;51.522;7.266;2023-04-03T13:54:18;16.50;99.90
1447;DHT22;717;51.522;7.266;2023-04-03T13:56:53;16.40;99.90
1447;DHT22;717;51.522;7.266;2023-04-03T13:59:24;16.40;99.90
1447;DHT22;717;51.522;7.266;2023-04-03T14:02:13;16.40;99.90
1447;DHT22;717;51.522;7.266;2023-04-03T14:04:50;16.40;99.90
1447;DHT22;717;51.522;7.266;2023-04-03T14:07:22;16.40;99.90
1447;DHT22;717;51.522;7.266;2023-04-03T14:09:51;16.50;99.90
1447;DHT22;717;51.522;7.266;2023-04-03T14:12:26;16.60;99.90
1447;DHT22;717;51.522;7.266;2023-04-03T14:14:55;16.60;99.90
1447;DHT22;717;51.522;7.266;2023-04-03T14:17:28;16.60;99.90
1447;DHT22;717;51.522;7.266;2023-04-03T14:19:57;16.60;99.90
1447;DHT22;717;51.522;7.266;2023-04-03T14:22:29;16.70;99.90
1447;DHT22;717;51.522;7.266;2023-04-03T14:24:58;16.70;99.90
1447;DHT22;717;51.522;7.266;2023-04-03T14:27:29;16.80;99.90
1447;DHT22;717;51.522;7.266;2023-04-03T14:29:58;16.70;99.90
1447;DHT22;717;51.522;7.266;2023-04-03T14:32:31;16.80;99.90
1447;DHT22;717;51.522;7.266;2023-04-03T14:35:00;16.80;99.90
1447;DHT22;717;51.522;7.266;2023-04-03T14:37:31;16.70;99.90
1447;DHT22;717;51.522;7.266;2023-04-03T14:40:02;16.70;99.90
1447;DHT22;717;51.522;7.266;2023-04-03T14:42:34;16.70;99.90
1447;DHT22;717;51.522;7.266;2023-04-03T14:45:05;16.70;99.90
1447;DHT22;717;51.522;7.266;2023-04-03T14:47:40;16.70;99.90
1447;DHT22;717;51.522;7.266;2023-04-03T14:50:14;16.70;99.90
1447;DHT22;717;51.522;7.266;2023-04-03T14:52:44;16.70;99.90
1447;DHT22;717;51.522;7.266;2023-04-03T14:55:15;16.70;99.90
1447;DHT22;717;51.522;7.266;2023-04-03T14:57:44;16.70;99.90
1447;DHT22;717;51.522;7.266;2023-04-03T15:00:14;16.70;99.90
1447;DHT22;717;51.522;7.266;2023-04-03T15:02:47;16.70;99.90
1447;DHT22;717;51.522;7.266;2023-04-03T15:05:16;16.70;99.90
1447;DHT22;717;51.522;7.266;2023-04-03T15:07:47;16.70;99.90
1447;DHT22;717;51.522;7.266;2023-04-03T15:10:19;16.60;99.90
1447;DHT22;717;51.522;7.266;2023-04-03T15:12:49;16.60;99.90
1447;DHT22;717;51.522;7.266;2023-04-03T15:15:20;16.60;99.90
1447;DHT22;717;51.522;7.266;2023-04-03T15:17:53;16.60;99.90
1447;DHT22;717;51.522;7.266;2023-04-03T15:20:24;16.50;99.90
1447;DHT22;717;51.522;7.266;2023-04-03T15:22:56;16.50;99.90
1447;DHT22;717;51.522;7.266;2023-04-03T15:25:26;16.50;99.90
1447;DHT22;717;51.522;7.266;2023-04-03T15:27:55;16.50;99.90
1447;DHT22;717;51.522;7.266;2023-04-03T15:30:24;16.40;99.90
1447;DHT22;717;51.522;7.266;2023-04-03T15:32:55;16.40;99.90
1447;DHT22;717;51.522;7.266;2023-04-03T15:35:24;16.40;99.90
1447;DHT22;717;51.522;7.266;2023-04-03T15:37:53;16.40;99.90
1447;DHT22;717;51.522;7.266;2023-04-03T15:40:21;16.40;99.90
1447;DHT22;717;51.522;7.266;2023-04-03T15:42:51;16.40;99.90
1447;DHT22;717;51.522;7.266;2023-04-03T15:45:19;16.40;99.90
1447;DHT22;717;51.522;7.266;2023-04-03T15:47:48;16.30;99.90
1447;DHT22;717;51.522;7.266;2023-04-03T15:50:20;16.30;99.90
1447;DHT22;717;51.522;7.266;2023-04-03T15:52:49;16.30;99.90
1447;DHT22;717;51.522;7.266;2023-04-03T15:55:20;16.30;99.90
1447;DHT22;717;51.522;7.266;2023-04-03T15:57:48;16.30;99.90
1447;DHT22;717;51.522;7.266;2023-04-03T16:00:17;16.20;99.90
1447;DHT22;717;51.522;7.266;2023-04-03T16:02:47;16.20;99.90
1447;DHT22;717;51.522;7.266;2023-04-03T16:05:20;16.20;99.90
1447;DHT22;717;51.522;7.266;2023-04-03T16:07:49;16.20;99.90
1447;DHT22;717;51.522;7.266;2023-04-03T16:10:19;16.20;99.90
1447;DHT22;717;51.522;7.266;2023-04-03T16:12:48;16.20;99.90
1447;DHT22;717;51.522;7.266;2023-04-03T16:15:16;16.10;99.90
1447;DHT22;717;51.522;7.266;2023-04-03T16:17:45;16.10;99.90
1447;DHT22;717;51.522;7.266;2023-04-03T16:20:14;16.10;99.90
1447;DHT22;717;51.522;7.266;2023-04-03T16:22:47;16.10;99.90
1447;DHT22;717;51.522;7.266;2023-04-03T16:25:15;16.10;99.90
1447;DHT22;717;51.522;7.266;2023-04-03T16:27:44;16.00;99.90
1447;DHT22;717;51.522;7.266;2023-04-03T16:30:13;16.00;99.90
1447;DHT22;717;51.522;7.266;2023-04-03T16:32:42;15.90;99.90
1447;DHT22;717;51.522;7.266;2023-04-03T16:35:11;15.90;99.90
1447;DHT22;717;51.522;7.266;2023-04-03T16:37:39;15.90;99.90
1447;DHT22;717;51.522;7.266;2023-04-03T16:40:11;15.80;99.90
1447;DHT22;717;51.522;7.266;2023-04-03T16:42:40;15.80;99.90
1447;DHT22;717;51.522;7.266;2023-04-03T16:45:10;15.80;99.90
1447;DHT22;717;51.522;7.266;2023-04-03T16:47:38;15.80;99.90
1447;DHT22;717;51.522;7.266;2023-04-03T16:50:08;15.70;99.90
1447;DHT22;717;51.522;7.266;2023-04-03T16:52:37;15.60;99.90
1447;DHT22;717;51.522;7.266;2023-04-03T16:55:06;15.50;99.90
1447;DHT22;717;51.522;7.266;2023-04-03T16:57:37;15.50;99.90
1447;DHT22;717;51.522;7.266;2023-04-03T17:00:07;15.40;99.90
1447;DHT22;717;51.522;7.266;2023-04-03T17:02:36;15.30;99.90
1447;DHT22;717;51.522;7.266;2023-04-03T17:05:05;15.30;99.90